createdAt,value
2022-09-01T00:02:53.762Z,15.08
2022-09-01T00:12:56.580Z,14.88
2022-09-01T00:23:01.499Z,14.77
2022-09-01T00:33:04.283Z,14.68
2022-09-01T00:43:18.159Z,14.65
2022-09-01T00:53:20.949Z,14.58
2022-09-01T01:03:25.127Z,14.53
2022-09-01T01:13:28.720Z,14.41
2022-09-01T01:23:40.195Z,14.34
2022-09-01T01:33:46.467Z,14.30
2022-09-01T01:43:50.961Z,14.27
2022-09-01T01:53:55.962Z,14.35
2022-09-01T02:04:00.590Z,14.37
2022-09-01T02:14:05.185Z,14.50
2022-09-01T02:24:08.690Z,14.59
2022-09-01T02:34:13.994Z,14.73
2022-09-01T02:44:22.069Z,14.86
2022-09-01T02:54:27.863Z,14.93
2022-09-01T03:04:33.945Z,15.11
2022-09-01T03:14:38.100Z,15.21
2022-09-01T03:24:40.912Z,15.29
2022-09-01T03:34:45.004Z,15.33
2022-09-01T03:44:49.289Z,15.36
2022-09-01T03:54:53.910Z,15.42
2022-09-01T04:04:59.004Z,15.41
2022-09-01T04:15:03.015Z,15.41
2022-09-01T04:25:06.710Z,15.43
2022-09-01T04:35:16.511Z,15.40
2022-09-01T04:45:20.870Z,15.39
2022-09-01T04:55:28.047Z,15.30
2022-09-01T05:05:39.334Z,15.29
2022-09-01T05:15:46.582Z,15.41
2022-09-01T05:25:54.687Z,15.48
2022-09-01T05:36:01.975Z,15.66
2022-09-01T05:46:08.641Z,15.78
2022-09-01T05:56:15.088Z,15.87
2022-09-01T06:06:17.976Z,16.00
2022-09-01T06:16:22.144Z,16.25
2022-09-01T06:26:28.712Z,16.41
2022-09-01T06:36:35.107Z,16.81
2022-09-01T06:46:38.138Z,17.08
2022-09-01T06:56:44.646Z,17.21
2022-09-01T07:17:23.586Z,17.77
2022-09-01T07:27:35.607Z,17.85
2022-09-01T07:48:06.435Z,18.32
2022-09-01T07:58:10.757Z,18.62
2022-09-01T08:08:23.699Z,18.89
2022-09-01T08:18:48.200Z,19.26
2022-09-01T08:28:55.288Z,19.61
2022-09-01T08:38:59.650Z,20.05
2022-09-01T08:59:32.418Z,20.70
2022-09-01T09:09:41.984Z,20.91
2022-09-01T09:19:46.858Z,21.28
2022-09-01T09:29:52.261Z,21.60
2022-09-01T09:40:11.086Z,21.88
2022-09-01T09:50:23.620Z,22.18
2022-09-01T10:00:30.267Z,22.38
2022-09-01T10:10:40.393Z,22.75
2022-09-01T10:20:50.008Z,22.97
2022-09-01T10:30:56.642Z,23.13
2022-09-01T10:41:16.186Z,23.22
2022-09-01T10:51:51.431Z,23.54
2022-09-01T11:02:27.967Z,23.94
2022-09-01T11:12:48.257Z,24.57
2022-09-01T11:23:03.804Z,25.30
2022-09-01T11:33:22.484Z,36.17
2022-09-01T11:43:28.165Z,33.82
2022-09-01T11:53:31.439Z,34.26
2022-09-01T12:03:36.913Z,36.18
2022-09-01T12:13:41.856Z,37.93
2022-09-01T12:23:46.338Z,40.78
2022-09-01T12:33:49.800Z,41.20
2022-09-01T12:43:54.938Z,42.05
2022-09-01T12:54:04.770Z,36.14
2022-09-01T13:04:29.382Z,30.37
2022-09-01T13:14:32.170Z,28.97
2022-09-01T13:24:36.316Z,27.72
2022-09-01T13:34:40.034Z,27.31
2022-09-01T13:44:44.805Z,26.55
2022-09-01T13:54:47.814Z,26.89
2022-09-01T14:04:52.031Z,26.17
2022-09-01T14:15:12.124Z,26.62
2022-09-01T14:25:21.075Z,26.09
2022-09-01T14:35:25.893Z,25.74
2022-09-01T14:45:30.030Z,25.73
2022-09-01T14:55:33.258Z,25.47
2022-09-01T15:05:39.492Z,25.44
2022-09-01T15:15:43.466Z,25.38
2022-09-01T15:25:48.357Z,25.17
2022-09-01T15:35:51.102Z,24.73
2022-09-01T15:45:59.101Z,24.60
2022-09-01T15:56:01.911Z,24.57
2022-09-01T16:06:07.537Z,24.46
2022-09-01T16:16:23.443Z,24.26
2022-09-01T16:26:27.605Z,23.98
2022-09-01T16:36:37.876Z,23.82
2022-09-01T16:46:46.910Z,23.65
2022-09-01T16:56:57.250Z,23.42
2022-09-01T17:07:06.850Z,23.21
2022-09-01T17:17:12.956Z,22.94
2022-09-01T17:27:27.528Z,22.77
2022-09-01T17:37:39.993Z,22.55
2022-09-01T17:47:57.784Z,22.26
2022-09-01T17:58:05.723Z,22.03
2022-09-01T18:08:30.638Z,21.63
2022-09-01T18:18:36.428Z,21.31
2022-09-01T18:28:42.008Z,20.95
2022-09-01T18:38:51.376Z,20.58
2022-09-01T18:49:01.839Z,19.92
2022-09-01T18:59:17.508Z,19.67
2022-09-01T19:09:29.511Z,19.44
2022-09-01T19:19:43.579Z,19.22
2022-09-01T19:29:52.377Z,19.00
2022-09-01T19:39:55.184Z,18.74
2022-09-01T19:50:04.342Z,18.67
2022-09-01T20:00:13.444Z,18.55
2022-09-01T20:10:31.169Z,18.47
2022-09-01T20:20:40.278Z,18.41
2022-09-01T20:30:51.108Z,18.24
2022-09-01T20:40:56.442Z,18.04
2022-09-01T20:51:07.725Z,17.87
2022-09-01T21:01:19.196Z,17.76
2022-09-01T21:11:34.422Z,17.58
2022-09-01T21:21:44.813Z,17.37
2022-09-01T21:31:48.839Z,17.23
2022-09-01T21:41:51.636Z,17.14
2022-09-01T21:51:55.824Z,16.98
2022-09-01T22:01:58.633Z,16.84
2022-09-01T22:12:03.388Z,16.76
2022-09-01T22:22:06.112Z,16.67
2022-09-01T22:32:10.282Z,16.54
2022-09-01T22:42:12.962Z,16.50
2022-09-01T22:52:17.156Z,16.40
2022-09-01T23:02:21.111Z,16.29
2022-09-01T23:12:25.265Z,16.17
2022-09-01T23:22:27.975Z,16.03
2022-09-01T23:32:32.080Z,15.96
2022-09-01T23:42:35.596Z,15.87
2022-09-01T23:52:39.647Z,15.80
